createdAt,value
2023-02-03T00:00:51.712Z,11.50
2023-02-03T00:03:19.774Z,10.97
2023-02-03T00:05:47.852Z,10.20
2023-02-03T00:08:17.263Z,10.70
2023-02-03T00:10:48.902Z,11.67
2023-02-03T00:13:16.989Z,10.93
2023-02-03T00:15:45.175Z,11.07
2023-02-03T00:18:13.209Z,11.50
2023-02-03T00:20:41.273Z,10.53
2023-02-03T00:23:10.043Z,10.30
2023-02-03T00:25:39.669Z,10.93
2023-02-03T00:28:07.787Z,11.47
2023-02-03T00:30:35.967Z,10.60
2023-02-03T00:33:06.885Z,11.67
2023-02-03T00:35:34.968Z,11.60
2023-02-03T00:38:02.997Z,11.07
2023-02-03T00:40:31.038Z,10.90
2023-02-03T00:43:00.500Z,10.60
2023-02-03T00:45:28.544Z,10.73
2023-02-03T00:47:56.587Z,11.10
2023-02-03T00:50:24.982Z,11.10
2023-02-03T00:52:53.175Z,10.67
2023-02-03T00:55:21.218Z,11.37
2023-02-03T00:57:49.290Z,11.30
2023-02-03T01:00:20.827Z,11.30
2023-02-03T01:02:49.023Z,11.13
2023-02-03T01:05:17.120Z,12.10
2023-02-03T01:07:45.174Z,11.57
2023-02-03T01:10:14.806Z,11.07
2023-02-03T01:12:42.858Z,10.60
2023-02-03T01:15:13.759Z,10.47
2023-02-03T01:17:43.143Z,11.43
2023-02-03T01:20:13.951Z,11.20
2023-02-03T01:22:42.012Z,11.23
2023-02-03T01:25:10.306Z,11.63
2023-02-03T01:27:38.429Z,11.30
2023-02-03T01:30:07.006Z,11.57
2023-02-03T01:32:35.059Z,11.70
2023-02-03T01:35:08.982Z,11.73
2023-02-03T01:37:37.025Z,11.70
2023-02-03T01:40:05.658Z,11.43
2023-02-03T01:42:34.432Z,12.17
2023-02-03T01:45:02.568Z,10.70
2023-02-03T01:47:32.345Z,10.30
2023-02-03T01:50:10.410Z,11.33
2023-02-03T01:52:38.495Z,11.20
2023-02-03T01:55:08.045Z,10.10
2023-02-03T01:57:37.925Z,11.70
2023-02-03T02:00:06.735Z,11.40
2023-02-03T02:02:34.872Z,11.00
2023-02-03T02:05:05.687Z,10.20
2023-02-03T02:07:35.603Z,10.17
2023-02-03T02:10:03.679Z,11.53
2023-02-03T02:12:31.748Z,11.50
2023-02-03T02:14:59.778Z,12.57
2023-02-03T02:17:41.602Z,11.20
2023-02-03T02:21:01.688Z,11.47
2023-02-03T02:24:06.136Z,10.50
2023-02-03T02:26:56.204Z,11.00
2023-02-03T02:29:45.064Z,11.50
2023-02-03T02:32:20.233Z,11.20
2023-02-03T02:34:51.992Z,10.13
2023-02-03T02:37:24.288Z,10.73
2023-02-03T02:39:55.536Z,10.83
2023-02-03T02:42:27.300Z,10.20
2023-02-03T02:44:57.202Z,10.17
2023-02-03T02:47:26.677Z,10.27
2023-02-03T02:49:57.649Z,10.80
2023-02-03T02:52:25.694Z,10.60
2023-02-03T02:54:54.975Z,10.80
2023-02-03T02:57:23.206Z,11.00
2023-02-03T02:59:51.314Z,11.27
2023-02-03T03:02:19.337Z,10.20
2023-02-03T03:04:49.133Z,10.37
2023-02-03T03:07:19.995Z,10.90
2023-02-03T03:09:49.640Z,9.80
2023-02-03T03:12:19.766Z,10.53
2023-02-03T03:14:49.786Z,10.37
2023-02-03T03:17:18.831Z,9.90
2023-02-03T03:19:50.648Z,8.97
2023-02-03T03:22:19.045Z,10.80
2023-02-03T03:24:48.636Z,9.90
2023-02-03T03:27:20.246Z,10.40
2023-02-03T03:29:49.841Z,10.03
2023-02-03T03:32:17.963Z,9.80
2023-02-03T03:34:45.994Z,9.77
2023-02-03T03:37:17.487Z,9.50
2023-02-03T03:39:47.746Z,8.73
2023-02-03T03:42:20.364Z,9.80
2023-02-03T03:44:52.208Z,9.73
2023-02-03T03:47:47.846Z,8.97
2023-02-03T03:50:18.846Z,9.30
2023-02-03T03:52:56.835Z,9.27
2023-02-03T03:55:25.084Z,9.27
2023-02-03T03:57:54.678Z,8.90
2023-02-03T04:00:25.725Z,8.53
2023-02-03T04:02:55.166Z,8.70
2023-02-03T04:05:24.150Z,9.07
2023-02-03T04:07:52.200Z,8.27
2023-02-03T04:10:28.735Z,8.13
2023-02-03T04:12:56.955Z,8.10
2023-02-03T04:15:25.085Z,8.10
2023-02-03T04:17:54.599Z,7.83
2023-02-03T04:20:22.717Z,7.57
2023-02-03T04:22:50.941Z,7.90
2023-02-03T04:25:19.116Z,6.90
2023-02-03T04:27:50.482Z,7.50
2023-02-03T04:30:19.348Z,7.40
2023-02-03T04:32:47.430Z,7.37
2023-02-03T04:35:15.563Z,7.40
2023-02-03T04:37:43.620Z,7.50
2023-02-03T04:40:12.723Z,7.03
2023-02-03T04:42:40.825Z,6.60
2023-02-03T04:45:12.037Z,6.90
2023-02-03T04:47:40.400Z,6.87
2023-02-03T04:50:09.111Z,6.50
2023-02-03T04:52:37.170Z,6.47
2023-02-03T04:55:07.914Z,6.60
2023-02-03T04:57:35.946Z,7.23
2023-02-03T05:00:04.024Z,6.93
2023-02-03T05:02:33.460Z,6.40
2023-02-03T05:05:01.514Z,6.27
2023-02-03T05:07:29.566Z,5.40
2023-02-03T05:09:57.604Z,6.40
2023-02-03T05:12:25.648Z,5.93
2023-02-03T05:14:53.700Z,5.60
2023-02-03T05:17:21.766Z,6.50
2023-02-03T05:19:51.168Z,5.80
2023-02-03T05:22:19.224Z,5.87
2023-02-03T05:24:47.443Z,5.70
2023-02-03T05:27:15.484Z,5.60
2023-02-03T05:29:43.505Z,5.67
2023-02-03T05:32:11.561Z,5.50
2023-02-03T05:34:41.389Z,5.70
2023-02-03T05:37:11.792Z,5.50
2023-02-03T05:39:39.816Z,5.27
2023-02-03T05:42:06.863Z,5.43
2023-02-03T05:44:34.912Z,5.20
2023-02-03T05:47:02.965Z,5.07
2023-02-03T05:49:30.976Z,5.33
2023-02-03T05:51:59.075Z,5.00
2023-02-03T05:54:28.573Z,5.00
2023-02-03T05:56:56.632Z,5.17
2023-02-03T05:59:24.681Z,5.60
2023-02-03T06:01:52.731Z,4.73
2023-02-03T06:04:20.873Z,4.90
2023-02-03T06:06:48.953Z,5.00
2023-02-03T06:09:16.981Z,4.60
2023-02-03T06:11:46.410Z,4.47
2023-02-03T06:14:14.461Z,4.63
2023-02-03T06:16:42.600Z,4.93
2023-02-03T06:19:10.789Z,4.60
2023-02-03T06:21:38.859Z,4.50
2023-02-03T06:24:07.213Z,4.53
2023-02-03T06:26:35.269Z,4.23
2023-02-03T06:29:04.729Z,3.83
2023-02-03T06:31:32.849Z,4.17
2023-02-03T06:34:02.666Z,4.07
2023-02-03T06:36:30.731Z,3.83
2023-02-03T06:38:59.279Z,3.60
2023-02-03T06:41:30.683Z,3.87
2023-02-03T06:43:58.875Z,4.00
2023-02-03T06:46:30.257Z,4.20
2023-02-03T06:48:58.398Z,4.07
2023-02-03T06:51:26.465Z,3.83
2023-02-03T06:53:54.550Z,4.17
2023-02-03T06:56:22.596Z,4.33
2023-02-03T06:58:50.633Z,3.90
2023-02-03T07:01:18.754Z,3.97
2023-02-03T07:03:48.307Z,4.30
2023-02-03T07:06:16.333Z,3.50
2023-02-03T07:08:44.455Z,3.73
2023-02-03T07:11:13.222Z,3.33
2023-02-03T07:13:41.261Z,3.67
2023-02-03T07:16:09.362Z,3.57
2023-02-03T07:18:47.467Z,3.90
2023-02-03T07:21:17.898Z,3.83
2023-02-03T07:23:48.105Z,3.63
2023-02-03T07:26:16.123Z,3.47
2023-02-03T07:28:44.227Z,3.13
2023-02-03T07:31:12.389Z,4.10
2023-02-03T07:33:40.597Z,3.87
2023-02-03T07:36:09.717Z,3.43
2023-02-03T07:38:39.152Z,3.70
2023-02-03T07:41:07.394Z,3.50
2023-02-03T07:43:35.464Z,3.87
2023-02-03T07:46:03.520Z,4.43
2023-02-03T07:48:31.551Z,3.17
2023-02-03T07:50:59.584Z,3.40
2023-02-03T07:53:27.783Z,3.70
2023-02-03T07:56:00.299Z,3.67
2023-02-03T07:58:28.342Z,3.70
2023-02-03T08:00:57.337Z,4.10
2023-02-03T08:03:25.376Z,4.10
2023-02-03T08:05:53.599Z,4.03
2023-02-03T08:08:21.685Z,4.40
2023-02-03T08:10:49.751Z,3.70
2023-02-03T08:13:19.210Z,4.27
2023-02-03T08:15:49.269Z,3.63
2023-02-03T08:18:17.412Z,3.73
2023-02-03T08:20:45.466Z,4.67
2023-02-03T08:23:13.529Z,3.60
2023-02-03T08:25:41.556Z,4.00
2023-02-03T08:28:09.667Z,3.73
2023-02-03T08:30:39.512Z,4.30
2023-02-03T08:33:07.561Z,4.63
2023-02-03T08:35:35.717Z,4.23
2023-02-03T08:38:03.735Z,4.73
2023-02-03T08:40:31.774Z,4.00
2023-02-03T08:43:01.344Z,4.30
2023-02-03T08:45:29.441Z,4.03
2023-02-03T08:47:58.897Z,4.67
2023-02-03T08:50:27.198Z,4.17
2023-02-03T08:52:55.476Z,4.00
2023-02-03T08:55:24.637Z,4.77
2023-02-03T08:57:52.698Z,4.23
2023-02-03T09:00:21.771Z,4.23
2023-02-03T09:02:49.799Z,4.30
2023-02-03T09:05:19.375Z,4.13
2023-02-03T09:07:49.295Z,3.80
2023-02-03T09:10:17.704Z,4.30
2023-02-03T09:12:45.729Z,4.80
2023-02-03T09:15:13.783Z,4.27
2023-02-03T09:17:41.821Z,4.27
2023-02-03T09:20:13.375Z,3.43
2023-02-03T09:22:42.919Z,3.80
2023-02-03T09:25:11.099Z,4.20
2023-02-03T09:27:39.157Z,4.00
2023-02-03T09:30:08.292Z,4.30
2023-02-03T09:32:36.343Z,4.00
2023-02-03T09:35:04.473Z,4.07
2023-02-03T09:37:32.546Z,3.87
2023-02-03T09:40:02.591Z,4.60
2023-02-03T09:42:41.530Z,4.20
2023-02-03T09:45:14.350Z,4.77
2023-02-03T09:47:42.968Z,4.57
2023-02-03T09:50:13.836Z,3.80
2023-02-03T09:52:44.242Z,4.60
2023-02-03T09:55:18.443Z,4.50
2023-02-03T09:57:48.601Z,4.30
2023-02-03T10:00:20.746Z,4.53
2023-02-03T10:02:55.771Z,4.00
2023-02-03T10:05:26.618Z,4.67
2023-02-03T10:08:00.423Z,4.43
2023-02-03T10:10:36.957Z,4.20
2023-02-03T10:13:15.714Z,4.10
2023-02-03T10:16:11.587Z,4.40
2023-02-03T10:18:41.382Z,4.00
2023-02-03T10:21:14.585Z,4.30
2023-02-03T10:23:43.903Z,4.77
2023-02-03T10:26:15.925Z,4.93
2023-02-03T10:28:46.940Z,3.83
2023-02-03T10:31:18.159Z,4.50
2023-02-03T10:33:46.249Z,4.50
2023-02-03T10:36:18.440Z,4.60
2023-02-03T10:38:50.298Z,4.50
2023-02-03T10:41:20.295Z,4.60
2023-02-03T10:43:48.391Z,5.17
2023-02-03T10:46:16.542Z,5.10
2023-02-03T10:48:44.613Z,4.00
2023-02-03T10:51:16.769Z,4.33
2023-02-03T10:53:46.218Z,4.37
2023-02-03T10:56:15.335Z,5.43
2023-02-03T10:58:50.430Z,4.90
2023-02-03T11:01:19.162Z,4.80
2023-02-03T11:03:59.505Z,3.80
2023-02-03T11:06:27.671Z,4.40
2023-02-03T11:08:55.703Z,4.30
2023-02-03T11:11:25.888Z,4.30
2023-02-03T11:13:56.468Z,4.30
2023-02-03T11:16:25.574Z,4.50
2023-02-03T11:18:57.550Z,4.30
2023-02-03T11:21:27.045Z,4.27
2023-02-03T11:23:57.674Z,4.37
2023-02-03T11:26:28.635Z,4.30
2023-02-03T11:28:59.657Z,4.77
2023-02-03T11:31:32.758Z,4.40
2023-02-03T11:34:02.359Z,4.80
2023-02-03T11:36:31.666Z,4.30
2023-02-03T11:39:19.995Z,5.00
2023-02-03T11:41:48.281Z,4.00
2023-02-03T11:44:22.646Z,4.10
2023-02-03T11:46:53.119Z,4.47
2023-02-03T11:50:02.025Z,4.50
2023-02-03T11:52:55.437Z,4.03
2023-02-03T11:55:34.827Z,4.37
2023-02-03T11:58:32.269Z,4.60
2023-02-03T12:01:05.540Z,4.43
2023-02-03T12:03:55.741Z,4.50
2023-02-03T12:07:00.035Z,3.87
2023-02-03T12:09:33.270Z,4.37
2023-02-03T12:12:43.621Z,4.40
2023-02-03T12:15:21.939Z,4.20
2023-02-03T12:18:07.537Z,3.47
2023-02-03T12:20:50.475Z,4.80
2023-02-03T12:23:28.302Z,4.20
2023-02-03T12:26:02.256Z,4.07
2023-02-03T12:28:41.683Z,3.90
2023-02-03T12:31:12.739Z,4.03
2023-02-03T12:33:44.711Z,3.87
2023-02-03T12:36:14.898Z,4.03
2023-02-03T12:38:45.331Z,3.97
2023-02-03T12:41:14.807Z,4.17
2023-02-03T12:43:49.177Z,4.17
2023-02-03T12:46:19.311Z,4.07
2023-02-03T12:48:52.007Z,3.80
2023-02-03T12:51:25.818Z,3.73
2023-02-03T12:53:56.730Z,3.90
2023-02-03T12:56:27.114Z,4.23
2023-02-03T12:58:57.304Z,4.27
2023-02-03T13:01:27.085Z,4.20
2023-02-03T13:03:59.513Z,3.80
2023-02-03T13:06:33.327Z,4.00
2023-02-03T13:09:04.010Z,3.93
2023-02-03T13:11:35.049Z,4.20
2023-02-03T13:14:05.148Z,3.83
2023-02-03T13:16:35.192Z,3.43
2023-02-03T13:19:06.891Z,3.63
2023-02-03T13:21:34.937Z,4.00
2023-02-03T13:24:04.742Z,3.80
2023-02-03T13:27:00.852Z,4.73
2023-02-03T13:29:40.863Z,3.57
2023-02-03T13:32:16.174Z,3.97
2023-02-03T13:34:55.869Z,3.80
2023-02-03T13:37:34.406Z,3.87
2023-02-03T13:40:25.544Z,3.73
2023-02-03T13:42:55.387Z,3.53
2023-02-03T13:45:26.679Z,3.30
2023-02-03T13:47:56.102Z,3.30
2023-02-03T13:50:26.867Z,3.67
2023-02-03T13:52:57.575Z,3.70
2023-02-03T13:55:35.319Z,3.93
2023-02-03T13:58:04.302Z,3.53
2023-02-03T14:01:02.246Z,3.40
2023-02-03T14:03:43.705Z,3.20
2023-02-03T14:06:58.905Z,3.53
2023-02-03T14:09:49.511Z,3.37
2023-02-03T14:12:34.369Z,3.30
2023-02-03T14:15:14.282Z,4.30
2023-02-03T14:18:28.196Z,3.20
2023-02-03T14:21:11.806Z,2.70
2023-02-03T14:23:43.977Z,3.00
2023-02-03T14:26:25.664Z,3.30
2023-02-03T14:28:54.062Z,3.20
2023-02-03T14:31:22.893Z,3.30
2023-02-03T14:34:15.883Z,3.37
2023-02-03T14:36:54.955Z,3.10
2023-02-03T14:39:57.533Z,3.43
2023-02-03T14:42:37.847Z,3.30
2023-02-03T14:45:12.806Z,2.80
2023-02-03T14:47:48.999Z,3.30
2023-02-03T14:50:27.579Z,3.60
2023-02-03T14:53:22.691Z,2.93
2023-02-03T14:55:55.132Z,3.17
2023-02-03T14:58:29.217Z,3.20
2023-02-03T15:01:01.632Z,3.20
2023-02-03T15:03:31.128Z,3.50
2023-02-03T15:06:01.494Z,3.07
2023-02-03T15:08:37.343Z,3.37
2023-02-03T15:11:30.601Z,3.47
2023-02-03T15:14:19.318Z,2.60
2023-02-03T15:16:47.607Z,3.37
2023-02-03T15:19:19.077Z,2.90
2023-02-03T15:21:47.364Z,3.67
2023-02-03T15:24:18.688Z,3.30
2023-02-03T15:26:47.110Z,3.13
2023-02-03T15:29:24.758Z,3.23
2023-02-03T15:31:55.645Z,3.27
2023-02-03T15:34:27.047Z,2.93
2023-02-03T15:36:56.680Z,3.60
2023-02-03T15:39:36.179Z,2.60
2023-02-03T15:42:06.223Z,3.40
2023-02-03T15:44:36.823Z,2.60
2023-02-03T15:47:05.279Z,2.37
2023-02-03T15:49:35.174Z,3.63
2023-02-03T15:52:04.136Z,3.47
2023-02-03T15:54:40.438Z,3.70
2023-02-03T15:57:11.025Z,3.53
2023-02-03T15:59:41.201Z,2.97
2023-02-03T16:02:15.956Z,3.07
2023-02-03T16:04:50.252Z,3.47
2023-02-03T16:07:19.365Z,3.10
2023-02-03T16:09:47.411Z,3.37
2023-02-03T16:12:19.511Z,3.63
2023-02-03T16:14:48.958Z,3.20
2023-02-03T16:17:28.542Z,2.80
2023-02-03T16:20:22.870Z,3.53
2023-02-03T16:23:05.496Z,3.23
2023-02-03T16:25:34.483Z,3.30
2023-02-03T16:28:20.407Z,3.10
2023-02-03T16:31:15.065Z,3.50
2023-02-03T16:34:03.945Z,3.20
2023-02-03T16:36:49.347Z,4.30
2023-02-03T16:39:34.744Z,4.60
2023-02-03T16:42:20.240Z,3.60
2023-02-03T16:45:05.940Z,3.40
2023-02-03T16:47:52.773Z,2.90
2023-02-03T16:50:39.902Z,3.03
2023-02-03T16:53:08.496Z,3.00
2023-02-03T16:55:36.550Z,3.83
2023-02-03T16:58:04.604Z,3.60
2023-02-03T17:00:32.678Z,3.33
2023-02-03T17:03:04.366Z,4.27
2023-02-03T17:05:32.727Z,3.57
2023-02-03T17:08:00.953Z,3.37
2023-02-03T17:10:31.775Z,3.47
2023-02-03T17:12:59.843Z,3.60
2023-02-03T17:15:28.090Z,3.53
2023-02-03T17:17:56.271Z,4.47
2023-02-03T17:20:25.893Z,2.80
2023-02-03T17:22:55.901Z,3.57
2023-02-03T17:25:23.974Z,3.07
2023-02-03T17:27:52.098Z,3.23
2023-02-03T17:30:25.848Z,3.67
2023-02-03T17:32:53.916Z,3.60
2023-02-03T17:35:21.940Z,4.63
2023-02-03T17:37:51.363Z,3.50
2023-02-03T17:54:16.688Z,3.40
2023-02-03T17:56:47.504Z,3.63
2023-02-03T17:59:15.540Z,4.23
2023-02-03T18:05:32.555Z,3.60
2023-02-03T18:08:05.911Z,3.73
2023-02-03T18:10:41.660Z,3.70
2023-02-03T18:13:09.728Z,3.37
2023-02-03T18:15:38.807Z,3.57
2023-02-03T18:18:08.069Z,4.50
2023-02-03T18:20:36.151Z,5.00
2023-02-03T18:23:04.224Z,3.60
2023-02-03T18:25:32.258Z,3.20
2023-02-03T18:28:01.794Z,3.87
2023-02-03T18:30:30.128Z,3.70
2023-02-03T18:32:59.910Z,3.83
2023-02-03T18:35:27.952Z,3.73
2023-02-03T18:37:56.003Z,3.70
2023-02-03T18:40:24.072Z,3.37
2023-02-03T18:42:52.144Z,4.13
2023-02-03T18:45:21.597Z,3.47
2023-02-03T18:47:49.639Z,3.50
2023-02-03T18:50:17.910Z,3.97
2023-02-03T18:52:46.134Z,3.50
2023-02-03T18:55:14.246Z,3.43
2023-02-03T18:57:42.297Z,3.70
2023-02-03T19:00:11.640Z,3.30
2023-02-03T19:02:41.076Z,3.73
2023-02-03T19:05:09.681Z,3.50
2023-02-03T19:07:37.998Z,3.70
2023-02-03T19:10:06.462Z,5.60
2023-02-03T19:12:34.482Z,3.67
2023-02-03T19:15:02.564Z,4.00
2023-02-03T19:17:30.740Z,3.43
2023-02-03T19:20:00.172Z,3.80
2023-02-03T19:22:28.204Z,3.20
2023-02-03T19:24:56.880Z,3.40
2023-02-03T19:27:24.907Z,3.40
2023-02-03T19:29:52.940Z,3.60
2023-02-03T19:32:21.044Z,3.33
2023-02-03T19:34:49.143Z,4.30
2023-02-03T19:37:18.550Z,3.23
2023-02-03T19:39:50.347Z,3.60
2023-02-03T19:42:19.946Z,3.57
2023-02-03T19:44:47.938Z,4.07
2023-02-03T19:47:16.149Z,3.50
2023-02-03T19:49:47.302Z,4.00
2023-02-03T19:52:15.353Z,3.47
2023-02-03T19:54:44.782Z,3.63
2023-02-03T19:57:12.870Z,3.93
2023-02-03T19:59:40.974Z,3.70
2023-02-03T20:02:14.301Z,3.73
2023-02-03T20:04:44.187Z,3.80
2023-02-03T20:07:12.681Z,4.13
2023-02-03T20:09:40.743Z,3.27
2023-02-03T20:12:10.213Z,3.73
2023-02-03T20:14:38.296Z,3.80
2023-02-03T20:17:07.540Z,3.63
2023-02-03T20:19:35.603Z,3.60
2023-02-03T20:22:03.662Z,4.20
2023-02-03T20:24:31.706Z,3.60
2023-02-03T20:26:59.748Z,4.03
2023-02-03T20:29:29.325Z,3.20
2023-02-03T20:31:58.727Z,3.40
2023-02-03T20:34:27.437Z,3.80
2023-02-03T20:36:58.539Z,3.83
2023-02-03T20:39:26.615Z,3.63
2023-02-03T20:41:54.659Z,3.70
2023-02-03T20:44:22.855Z,3.40
2023-02-03T20:46:53.527Z,3.30
2023-02-03T20:49:21.731Z,3.27
2023-02-03T20:51:49.765Z,2.87
2023-02-03T20:54:18.581Z,3.73
2023-02-03T20:56:46.770Z,3.07
2023-02-03T20:59:15.225Z,3.33
2023-02-03T21:01:43.391Z,4.43
2023-02-03T21:04:32.230Z,3.20
2023-02-03T21:07:00.253Z,3.37
2023-02-03T21:09:31.939Z,3.57
2023-02-03T21:12:00.004Z,2.90
2023-02-03T21:14:36.659Z,3.57
2023-02-03T21:17:04.783Z,3.40
2023-02-03T21:19:35.246Z,2.93
2023-02-03T21:22:05.424Z,3.70
2023-02-03T21:24:35.541Z,3.50
2023-02-03T21:27:03.650Z,3.37
2023-02-03T21:29:33.841Z,2.70
2023-02-03T21:32:01.956Z,2.93
2023-02-03T21:34:30.761Z,3.30
2023-02-03T21:37:02.848Z,3.70
2023-02-03T21:39:31.696Z,3.60
2023-02-03T21:42:02.093Z,3.07
2023-02-03T21:44:32.480Z,3.10
2023-02-03T21:47:02.876Z,3.20
2023-02-03T21:49:30.944Z,3.40
2023-02-03T21:52:00.409Z,3.50
2023-02-03T21:54:30.253Z,2.80
2023-02-03T21:56:58.819Z,2.77
2023-02-03T21:59:29.637Z,2.97
2023-02-03T22:01:58.547Z,3.03
2023-02-03T22:04:27.205Z,3.23
2023-02-03T22:06:55.359Z,2.20
2023-02-03T22:09:25.547Z,2.90
2023-02-03T22:11:53.726Z,2.20
2023-02-03T22:14:21.849Z,3.20
2023-02-03T22:16:49.895Z,3.00
2023-02-03T22:19:18.458Z,3.23
2023-02-03T22:21:48.555Z,2.70
2023-02-03T22:24:16.638Z,2.70
2023-02-03T22:26:46.018Z,2.90
2023-02-03T22:29:14.061Z,3.10
2023-02-03T22:31:42.792Z,2.90
2023-02-03T22:34:10.988Z,2.80
2023-02-03T22:36:44.020Z,2.50
2023-02-03T22:39:14.042Z,3.50
2023-02-03T22:41:42.105Z,2.80
2023-02-03T22:44:16.054Z,3.23
2023-02-03T22:46:44.250Z,2.63
2023-02-03T22:49:12.266Z,3.00
2023-02-03T22:51:40.693Z,3.07
2023-02-03T22:54:08.745Z,2.93
2023-02-03T22:56:36.817Z,3.40
2023-02-03T22:59:04.865Z,2.90
2023-02-03T23:01:34.620Z,3.13
2023-02-03T23:04:02.732Z,2.60
2023-02-03T23:06:30.798Z,2.77
2023-02-03T23:08:58.810Z,3.30
2023-02-03T23:11:26.946Z,3.20
2023-02-03T23:13:55.025Z,2.80
2023-02-03T23:16:23.171Z,3.33
2023-02-03T23:18:52.564Z,3.40
2023-02-03T23:21:20.607Z,2.80
2023-02-03T23:23:48.635Z,2.80
2023-02-03T23:26:16.731Z,2.87
2023-02-03T23:28:44.758Z,2.80
2023-02-03T23:31:15.300Z,2.87
2023-02-03T23:34:03.998Z,2.70
2023-02-03T23:36:32.451Z,3.10
2023-02-03T23:39:00.494Z,2.90
2023-02-03T23:41:28.561Z,3.40
2023-02-03T23:43:56.583Z,2.50
2023-02-03T23:46:26.563Z,2.80
2023-02-03T23:48:54.905Z,2.87
2023-02-03T23:51:22.955Z,2.73
2023-02-03T23:53:52.338Z,3.40
2023-02-03T23:56:20.380Z,2.20
2023-02-03T23:58:48.524Z,2.70
